sensor_id;sensor_type;location;lat;lon;timestamp;P1;durP1;ratioP1;P2;durP2;ratioP2
61054;SDS011;46939;48.940;8.258;2022-12-18T00:00:07;70.07;;;25.73;;
61054;SDS011;46939;48.940;8.258;2022-12-18T00:02:37;63.13;;;23.70;;
61054;SDS011;46939;48.940;8.258;2022-12-18T00:05:05;63.38;;;25.02;;
61054;SDS011;46939;48.940;8.258;2022-12-18T00:07:35;63.25;;;23.85;;
61054;SDS011;46939;48.940;8.258;2022-12-18T00:10:05;62.85;;;23.73;;
61054;SDS011;46939;48.940;8.258;2022-12-18T00:12:34;70.72;;;24.92;;
61054;SDS011;46939;48.940;8.258;2022-12-18T00:15:06;63.80;;;23.65;;
61054;SDS011;46939;48.940;8.258;2022-12-18T00:17:35;62.95;;;23.48;;
61054;SDS011;46939;48.940;8.258;2022-12-18T00:20:03;61.47;;;23.42;;
61054;SDS011;46939;48.940;8.258;2022-12-18T00:22:32;59.80;;;24.15;;
61054;SDS011;46939;48.940;8.258;2022-12-18T00:25:01;58.25;;;22.58;;
61054;SDS011;46939;48.940;8.258;2022-12-18T00:27:29;64.63;;;24.08;;
61054;SDS011;46939;48.940;8.258;2022-12-18T00:29:57;62.38;;;26.17;;
61054;SDS011;46939;48.940;8.258;2022-12-18T00:32:28;65.45;;;25.15;;
61054;SDS011;46939;48.940;8.258;2022-12-18T00:34:56;68.63;;;25.65;;
61054;SDS011;46939;48.940;8.258;2022-12-18T00:37:25;62.92;;;24.77;;
61054;SDS011;46939;48.940;8.258;2022-12-18T00:39:53;61.92;;;24.25;;
61054;SDS011;46939;48.940;8.258;2022-12-18T00:42:21;67.57;;;25.73;;
61054;SDS011;46939;48.940;8.258;2022-12-18T00:45:14;62.67;;;24.23;;
61054;SDS011;46939;48.940;8.258;2022-12-18T00:47:45;64.80;;;24.25;;
61054;SDS011;46939;48.940;8.258;2022-12-18T00:50:13;64.68;;;23.77;;
61054;SDS011;46939;48.940;8.258;2022-12-18T00:52:42;64.22;;;24.48;;
61054;SDS011;46939;48.940;8.258;2022-12-18T00:55:10;69.75;;;25.38;;
61054;SDS011;46939;48.940;8.258;2022-12-18T00:57:39;69.57;;;24.67;;
61054;SDS011;46939;48.940;8.258;2022-12-18T01:00:09;66.88;;;24.42;;
61054;SDS011;46939;48.940;8.258;2022-12-18T01:02:39;69.20;;;25.63;;
61054;SDS011;46939;48.940;8.258;2022-12-18T01:05:11;62.83;;;24.05;;
61054;SDS011;46939;48.940;8.258;2022-12-18T01:07:40;60.22;;;23.83;;
61054;SDS011;46939;48.940;8.258;2022-12-18T01:10:09;63.50;;;24.25;;
61054;SDS011;46939;48.940;8.258;2022-12-18T01:12:40;62.40;;;24.60;;
61054;SDS011;46939;48.940;8.258;2022-12-18T01:15:09;64.35;;;25.65;;
61054;SDS011;46939;48.940;8.258;2022-12-18T01:17:39;60.38;;;23.95;;
61054;SDS011;46939;48.940;8.258;2022-12-18T01:20:08;58.50;;;22.52;;
61054;SDS011;46939;48.940;8.258;2022-12-18T01:22:40;60.90;;;23.23;;
61054;SDS011;46939;48.940;8.258;2022-12-18T01:25:09;58.38;;;22.52;;
61054;SDS011;46939;48.940;8.258;2022-12-18T01:27:37;70.40;;;24.67;;
61054;SDS011;46939;48.940;8.258;2022-12-18T01:30:06;60.38;;;23.20;;
61054;SDS011;46939;48.940;8.258;2022-12-18T01:32:35;66.75;;;24.20;;
61054;SDS011;46939;48.940;8.258;2022-12-18T01:35:04;62.25;;;23.67;;
61054;SDS011;46939;48.940;8.258;2022-12-18T01:37:36;59.92;;;24.17;;
61054;SDS011;46939;48.940;8.258;2022-12-18T01:40:05;65.63;;;24.08;;
61054;SDS011;46939;48.940;8.258;2022-12-18T01:42:35;59.42;;;23.30;;
61054;SDS011;46939;48.940;8.258;2022-12-18T01:45:08;60.92;;;22.65;;
61054;SDS011;46939;48.940;8.258;2022-12-18T01:47:52;53.97;;;21.30;;
61054;SDS011;46939;48.940;8.258;2022-12-18T01:50:24;52.95;;;21.48;;
61054;SDS011;46939;48.940;8.258;2022-12-18T01:52:59;51.47;;;21.23;;
61054;SDS011;46939;48.940;8.258;2022-12-18T01:55:31;55.45;;;22.17;;
61054;SDS011;46939;48.940;8.258;2022-12-18T01:58:03;57.40;;;21.38;;
61054;SDS011;46939;48.940;8.258;2022-12-18T02:00:32;54.88;;;21.40;;
61054;SDS011;46939;48.940;8.258;2022-12-18T02:03:01;56.78;;;22.48;;
61054;SDS011;46939;48.940;8.258;2022-12-18T02:05:35;59.15;;;23.08;;
61054;SDS011;46939;48.940;8.258;2022-12-18T02:08:12;56.10;;;22.17;;
61054;SDS011;46939;48.940;8.258;2022-12-18T02:10:48;60.90;;;23.02;;
61054;SDS011;46939;48.940;8.258;2022-12-18T02:13:25;62.55;;;22.85;;
61054;SDS011;46939;48.940;8.258;2022-12-18T02:16:01;57.75;;;22.13;;
61054;SDS011;46939;48.940;8.258;2022-12-18T02:18:33;57.40;;;22.52;;
61054;SDS011;46939;48.940;8.258;2022-12-18T02:21:07;58.25;;;22.13;;
61054;SDS011;46939;48.940;8.258;2022-12-18T02:23:45;69.85;;;24.88;;
61054;SDS011;46939;48.940;8.258;2022-12-18T02:26:24;58.58;;;23.02;;
61054;SDS011;46939;48.940;8.258;2022-12-18T02:28:59;64.07;;;21.98;;
61054;SDS011;46939;48.940;8.258;2022-12-18T02:31:33;55.13;;;22.60;;
61054;SDS011;46939;48.940;8.258;2022-12-18T02:34:06;49.53;;;20.88;;
61054;SDS011;46939;48.940;8.258;2022-12-18T02:36:38;58.78;;;22.70;;
61054;SDS011;46939;48.940;8.258;2022-12-18T02:39:10;57.22;;;22.10;;
61054;SDS011;46939;48.940;8.258;2022-12-18T02:41:43;54.42;;;21.90;;
61054;SDS011;46939;48.940;8.258;2022-12-18T02:44:13;58.38;;;22.60;;
61054;SDS011;46939;48.940;8.258;2022-12-18T02:46:43;60.80;;;22.98;;
61054;SDS011;46939;48.940;8.258;2022-12-18T02:49:22;61.53;;;22.52;;
61054;SDS011;46939;48.940;8.258;2022-12-18T02:52:02;64.57;;;22.88;;
61054;SDS011;46939;48.940;8.258;2022-12-18T02:54:37;57.78;;;23.40;;
61054;SDS011;46939;48.940;8.258;2022-12-18T02:57:18;58.50;;;22.92;;
61054;SDS011;46939;48.940;8.258;2022-12-18T02:59:51;60.55;;;22.60;;
61054;SDS011;46939;48.940;8.258;2022-12-18T03:02:26;59.25;;;22.40;;
61054;SDS011;46939;48.940;8.258;2022-12-18T03:05:01;59.55;;;22.45;;
61054;SDS011;46939;48.940;8.258;2022-12-18T03:07:37;59.40;;;22.50;;
61054;SDS011;46939;48.940;8.258;2022-12-18T03:10:09;55.25;;;21.40;;
61054;SDS011;46939;48.940;8.258;2022-12-18T03:12:44;58.30;;;22.52;;
61054;SDS011;46939;48.940;8.258;2022-12-18T03:15:19;60.17;;;22.30;;
61054;SDS011;46939;48.940;8.258;2022-12-18T03:17:51;55.28;;;20.48;;
61054;SDS011;46939;48.940;8.258;2022-12-18T03:20:27;55.20;;;21.15;;
61054;SDS011;46939;48.940;8.258;2022-12-18T03:22:59;65.53;;;22.65;;
61054;SDS011;46939;48.940;8.258;2022-12-18T03:25:34;58.13;;;22.30;;
61054;SDS011;46939;48.940;8.258;2022-12-18T03:28:10;65.65;;;24.33;;
61054;SDS011;46939;48.940;8.258;2022-12-18T03:33:12;65.00;;;21.98;;
61054;SDS011;46939;48.940;8.258;2022-12-18T03:35:45;53.72;;;20.35;;
61054;SDS011;46939;48.940;8.258;2022-12-18T03:38:14;58.30;;;21.63;;
61054;SDS011;46939;48.940;8.258;2022-12-18T03:40:53;68.38;;;23.60;;
61054;SDS011;46939;48.940;8.258;2022-12-18T03:43:34;64.43;;;21.58;;
61054;SDS011;46939;48.940;8.258;2022-12-18T03:46:07;58.72;;;21.88;;
61054;SDS011;46939;48.940;8.258;2022-12-18T03:48:43;53.63;;;19.50;;
61054;SDS011;46939;48.940;8.258;2022-12-18T03:51:18;52.45;;;20.10;;
61054;SDS011;46939;48.940;8.258;2022-12-18T03:53:58;51.58;;;20.08;;
61054;SDS011;46939;48.940;8.258;2022-12-18T03:56:29;54.95;;;20.70;;
61054;SDS011;46939;48.940;8.258;2022-12-18T03:59:04;56.10;;;21.33;;
61054;SDS011;46939;48.940;8.258;2022-12-18T04:01:34;60.20;;;20.73;;
61054;SDS011;46939;48.940;8.258;2022-12-18T04:04:07;58.72;;;20.98;;
61054;SDS011;46939;48.940;8.258;2022-12-18T04:06:38;57.35;;;21.10;;
61054;SDS011;46939;48.940;8.258;2022-12-18T04:09:07;58.10;;;21.65;;
61054;SDS011;46939;48.940;8.258;2022-12-18T04:11:36;59.38;;;20.67;;
61054;SDS011;46939;48.940;8.258;2022-12-18T04:14:07;58.95;;;22.58;;
61054;SDS011;46939;48.940;8.258;2022-12-18T04:16:35;58.03;;;22.35;;
61054;SDS011;46939;48.940;8.258;2022-12-18T04:19:04;68.78;;;23.70;;
61054;SDS011;46939;48.940;8.258;2022-12-18T04:21:32;57.25;;;22.08;;
61054;SDS011;46939;48.940;8.258;2022-12-18T04:24:00;69.40;;;23.40;;
61054;SDS011;46939;48.940;8.258;2022-12-18T04:26:29;58.67;;;22.45;;
61054;SDS011;46939;48.940;8.258;2022-12-18T04:28:57;56.83;;;22.00;;
61054;SDS011;46939;48.940;8.258;2022-12-18T04:31:28;55.65;;;21.92;;
61054;SDS011;46939;48.940;8.258;2022-12-18T04:33:56;66.13;;;23.08;;
61054;SDS011;46939;48.940;8.258;2022-12-18T04:36:25;63.28;;;22.67;;
61054;SDS011;46939;48.940;8.258;2022-12-18T04:38:54;70.10;;;22.52;;
61054;SDS011;46939;48.940;8.258;2022-12-18T04:41:23;63.50;;;21.92;;
61054;SDS011;46939;48.940;8.258;2022-12-18T04:43:51;58.35;;;23.05;;
61054;SDS011;46939;48.940;8.258;2022-12-18T04:46:20;68.10;;;22.10;;
61054;SDS011;46939;48.940;8.258;2022-12-18T04:48:51;59.42;;;22.52;;
61054;SDS011;46939;48.940;8.258;2022-12-18T04:51:22;64.22;;;21.27;;
61054;SDS011;46939;48.940;8.258;2022-12-18T04:53:53;63.38;;;22.83;;
61054;SDS011;46939;48.940;8.258;2022-12-18T04:56:22;60.40;;;23.60;;
61054;SDS011;46939;48.940;8.258;2022-12-18T04:58:51;66.25;;;25.55;;
61054;SDS011;46939;48.940;8.258;2022-12-18T05:01:19;67.55;;;24.50;;
61054;SDS011;46939;48.940;8.258;2022-12-18T05:03:53;63.95;;;24.85;;
61054;SDS011;46939;48.940;8.258;2022-12-18T05:06:21;66.72;;;24.63;;
61054;SDS011;46939;48.940;8.258;2022-12-18T05:08:49;62.53;;;25.05;;
61054;SDS011;46939;48.940;8.258;2022-12-18T05:11:18;60.38;;;25.40;;
61054;SDS011;46939;48.940;8.258;2022-12-18T05:13:46;64.82;;;25.88;;
61054;SDS011;46939;48.940;8.258;2022-12-18T05:16:14;70.95;;;25.73;;
61054;SDS011;46939;48.940;8.258;2022-12-18T05:18:43;63.28;;;24.33;;
61054;SDS011;46939;48.940;8.258;2022-12-18T05:21:14;67.22;;;24.80;;
61054;SDS011;46939;48.940;8.258;2022-12-18T05:23:42;64.10;;;23.80;;
61054;SDS011;46939;48.940;8.258;2022-12-18T05:26:14;62.30;;;22.95;;
61054;SDS011;46939;48.940;8.258;2022-12-18T05:28:44;66.40;;;22.98;;
61054;SDS011;46939;48.940;8.258;2022-12-18T05:31:13;69.95;;;24.00;;
61054;SDS011;46939;48.940;8.258;2022-12-18T05:33:42;67.05;;;24.92;;
61054;SDS011;46939;48.940;8.258;2022-12-18T05:36:10;65.10;;;24.25;;
61054;SDS011;46939;48.940;8.258;2022-12-18T05:38:41;64.13;;;24.23;;
61054;SDS011;46939;48.940;8.258;2022-12-18T05:41:10;64.88;;;24.52;;
61054;SDS011;46939;48.940;8.258;2022-12-18T05:43:38;70.55;;;24.88;;
61054;SDS011;46939;48.940;8.258;2022-12-18T05:46:08;56.88;;;22.73;;
61054;SDS011;46939;48.940;8.258;2022-12-18T05:48:40;61.78;;;23.15;;
61054;SDS011;46939;48.940;8.258;2022-12-18T05:51:16;60.17;;;21.45;;
61054;SDS011;46939;48.940;8.258;2022-12-18T05:53:49;66.20;;;23.45;;
61054;SDS011;46939;48.940;8.258;2022-12-18T05:56:18;67.03;;;22.92;;
61054;SDS011;46939;48.940;8.258;2022-12-18T05:58:50;62.50;;;22.33;;
61054;SDS011;46939;48.940;8.258;2022-12-18T06:01:20;74.65;;;23.88;;
61054;SDS011;46939;48.940;8.258;2022-12-18T06:03:50;60.35;;;21.48;;
61054;SDS011;46939;48.940;8.258;2022-12-18T06:06:19;68.28;;;23.08;;
61054;SDS011;46939;48.940;8.258;2022-12-18T06:08:51;64.93;;;22.80;;
61054;SDS011;46939;48.940;8.258;2022-12-18T06:11:21;67.97;;;24.08;;
61054;SDS011;46939;48.940;8.258;2022-12-18T06:13:51;67.28;;;24.20;;
61054;SDS011;46939;48.940;8.258;2022-12-18T06:16:20;67.80;;;23.48;;
61054;SDS011;46939;48.940;8.258;2022-12-18T06:18:50;66.75;;;23.58;;
61054;SDS011;46939;48.940;8.258;2022-12-18T06:21:18;76.18;;;23.27;;
61054;SDS011;46939;48.940;8.258;2022-12-18T06:23:47;76.18;;;23.90;;
61054;SDS011;46939;48.940;8.258;2022-12-18T06:26:18;74.22;;;25.08;;
61054;SDS011;46939;48.940;8.258;2022-12-18T06:28:46;73.82;;;23.45;;
61054;SDS011;46939;48.940;8.258;2022-12-18T06:31:15;76.15;;;24.17;;
61054;SDS011;46939;48.940;8.258;2022-12-18T06:33:43;79.72;;;24.63;;
61054;SDS011;46939;48.940;8.258;2022-12-18T06:36:12;70.40;;;23.55;;
61054;SDS011;46939;48.940;8.258;2022-12-18T06:38:42;70.97;;;25.10;;
61054;SDS011;46939;48.940;8.258;2022-12-18T06:41:12;66.30;;;23.50;;
61054;SDS011;46939;48.940;8.258;2022-12-18T06:43:45;65.95;;;22.65;;
61054;SDS011;46939;48.940;8.258;2022-12-18T06:46:17;71.53;;;24.42;;
61054;SDS011;46939;48.940;8.258;2022-12-18T06:48:46;73.15;;;24.17;;
61054;SDS011;46939;48.940;8.258;2022-12-18T06:51:26;78.28;;;24.58;;
61054;SDS011;46939;48.940;8.258;2022-12-18T06:54:00;68.55;;;23.05;;
61054;SDS011;46939;48.940;8.258;2022-12-18T06:56:35;72.93;;;24.33;;
61054;SDS011;46939;48.940;8.258;2022-12-18T06:59:13;73.75;;;25.50;;
61054;SDS011;46939;48.940;8.258;2022-12-18T07:01:41;72.35;;;24.23;;
61054;SDS011;46939;48.940;8.258;2022-12-18T07:04:10;72.43;;;25.40;;
61054;SDS011;46939;48.940;8.258;2022-12-18T07:06:38;72.85;;;24.52;;
61054;SDS011;46939;48.940;8.258;2022-12-18T07:09:07;72.20;;;24.08;;
61054;SDS011;46939;48.940;8.258;2022-12-18T07:11:35;80.45;;;24.98;;
61054;SDS011;46939;48.940;8.258;2022-12-18T07:14:03;75.38;;;24.73;;
61054;SDS011;46939;48.940;8.258;2022-12-18T07:16:34;77.50;;;25.33;;
61054;SDS011;46939;48.940;8.258;2022-12-18T07:19:03;95.57;;;28.83;;
61054;SDS011;46939;48.940;8.258;2022-12-18T07:21:31;86.50;;;27.52;;
61054;SDS011;46939;48.940;8.258;2022-12-18T07:24:00;76.47;;;25.90;;
61054;SDS011;46939;48.940;8.258;2022-12-18T07:26:28;81.95;;;26.17;;
61054;SDS011;46939;48.940;8.258;2022-12-18T07:28:56;70.57;;;25.08;;
61054;SDS011;46939;48.940;8.258;2022-12-18T07:31:25;75.60;;;25.23;;
61054;SDS011;46939;48.940;8.258;2022-12-18T07:33:57;72.18;;;25.27;;
61054;SDS011;46939;48.940;8.258;2022-12-18T07:36:25;70.00;;;23.85;;
61054;SDS011;46939;48.940;8.258;2022-12-18T07:39:14;83.13;;;26.27;;
61054;SDS011;46939;48.940;8.258;2022-12-18T07:41:42;76.40;;;23.67;;
61054;SDS011;46939;48.940;8.258;2022-12-18T07:44:31;71.88;;;23.80;;
61054;SDS011;46939;48.940;8.258;2022-12-18T07:46:59;74.25;;;24.15;;
61054;SDS011;46939;48.940;8.258;2022-12-18T07:49:33;71.63;;;24.63;;
61054;SDS011;46939;48.940;8.258;2022-12-18T07:52:01;79.25;;;25.02;;
61054;SDS011;46939;48.940;8.258;2022-12-18T07:54:30;71.18;;;22.80;;
61054;SDS011;46939;48.940;8.258;2022-12-18T07:57:01;72.28;;;23.60;;
61054;SDS011;46939;48.940;8.258;2022-12-18T07:59:29;72.75;;;24.95;;
61054;SDS011;46939;48.940;8.258;2022-12-18T08:01:58;68.85;;;23.88;;
61054;SDS011;46939;48.940;8.258;2022-12-18T08:04:26;58.60;;;22.52;;
61054;SDS011;46939;48.940;8.258;2022-12-18T08:07:00;65.95;;;22.48;;
61054;SDS011;46939;48.940;8.258;2022-12-18T08:09:28;70.38;;;21.67;;
61054;SDS011;46939;48.940;8.258;2022-12-18T08:11:59;69.93;;;23.02;;
61054;SDS011;46939;48.940;8.258;2022-12-18T08:14:28;73.07;;;24.40;;
61054;SDS011;46939;48.940;8.258;2022-12-18T08:16:56;63.83;;;23.65;;
61054;SDS011;46939;48.940;8.258;2022-12-18T08:19:24;67.75;;;23.45;;
61054;SDS011;46939;48.940;8.258;2022-12-18T08:21:54;76.95;;;24.95;;
61054;SDS011;46939;48.940;8.258;2022-12-18T08:24:25;66.85;;;23.63;;
61054;SDS011;46939;48.940;8.258;2022-12-18T08:26:54;67.68;;;23.88;;
61054;SDS011;46939;48.940;8.258;2022-12-18T08:29:24;78.90;;;26.17;;
61054;SDS011;46939;48.940;8.258;2022-12-18T08:31:53;80.38;;;25.58;;
61054;SDS011;46939;48.940;8.258;2022-12-18T08:34:21;71.65;;;23.90;;
61054;SDS011;46939;48.940;8.258;2022-12-18T08:36:49;66.95;;;23.15;;
61054;SDS011;46939;48.940;8.258;2022-12-18T08:39:18;70.55;;;23.02;;
61054;SDS011;46939;48.940;8.258;2022-12-18T08:41:49;70.72;;;24.52;;
61054;SDS011;46939;48.940;8.258;2022-12-18T08:44:29;59.83;;;21.92;;
61054;SDS011;46939;48.940;8.258;2022-12-18T08:47:07;64.40;;;22.60;;
61054;SDS011;46939;48.940;8.258;2022-12-18T08:49:35;74.43;;;23.55;;
61054;SDS011;46939;48.940;8.258;2022-12-18T08:52:04;66.55;;;22.95;;
61054;SDS011;46939;48.940;8.258;2022-12-18T08:54:32;72.10;;;24.15;;
61054;SDS011;46939;48.940;8.258;2022-12-18T08:57:03;68.75;;;23.52;;
61054;SDS011;46939;48.940;8.258;2022-12-18T08:59:34;68.72;;;23.30;;
61054;SDS011;46939;48.940;8.258;2022-12-18T09:02:05;67.28;;;23.20;;
61054;SDS011;46939;48.940;8.258;2022-12-18T09:04:34;71.78;;;24.25;;
61054;SDS011;46939;48.940;8.258;2022-12-18T09:07:02;70.28;;;23.45;;
61054;SDS011;46939;48.940;8.258;2022-12-18T09:09:31;71.13;;;22.85;;
61054;SDS011;46939;48.940;8.258;2022-12-18T09:12:01;67.68;;;23.08;;
61054;SDS011;46939;48.940;8.258;2022-12-18T09:14:32;78.55;;;23.85;;
61054;SDS011;46939;48.940;8.258;2022-12-18T09:17:00;80.90;;;25.05;;
61054;SDS011;46939;48.940;8.258;2022-12-18T09:19:29;68.15;;;22.23;;
61054;SDS011;46939;48.940;8.258;2022-12-18T09:21:57;64.03;;;22.52;;
61054;SDS011;46939;48.940;8.258;2022-12-18T09:24:26;67.10;;;22.38;;
61054;SDS011;46939;48.940;8.258;2022-12-18T09:26:54;70.32;;;23.80;;
61054;SDS011;46939;48.940;8.258;2022-12-18T09:29:25;69.18;;;23.73;;
61054;SDS011;46939;48.940;8.258;2022-12-18T09:31:54;59.08;;;22.95;;
61054;SDS011;46939;48.940;8.258;2022-12-18T09:34:22;61.45;;;23.23;;
61054;SDS011;46939;48.940;8.258;2022-12-18T09:36:51;66.85;;;23.85;;
61054;SDS011;46939;48.940;8.258;2022-12-18T09:39:19;65.38;;;21.30;;
61054;SDS011;46939;48.940;8.258;2022-12-18T09:41:50;69.88;;;23.23;;
61054;SDS011;46939;48.940;8.258;2022-12-18T09:44:29;66.95;;;22.38;;
61054;SDS011;46939;48.940;8.258;2022-12-18T09:47:10;66.75;;;23.40;;
61054;SDS011;46939;48.940;8.258;2022-12-18T09:49:43;69.00;;;22.65;;
61054;SDS011;46939;48.940;8.258;2022-12-18T09:52:14;68.25;;;23.75;;
61054;SDS011;46939;48.940;8.258;2022-12-18T09:54:52;67.40;;;23.63;;
61054;SDS011;46939;48.940;8.258;2022-12-18T09:57:24;65.77;;;24.53;;
61054;SDS011;46939;48.940;8.258;2022-12-18T09:59:56;66.35;;;22.38;;
61054;SDS011;46939;48.940;8.258;2022-12-18T10:02:30;68.68;;;23.83;;
61054;SDS011;46939;48.940;8.258;2022-12-18T10:05:04;54.70;;;21.52;;
61054;SDS011;46939;48.940;8.258;2022-12-18T10:07:39;72.20;;;23.17;;
61054;SDS011;46939;48.940;8.258;2022-12-18T10:10:18;63.88;;;22.50;;
61054;SDS011;46939;48.940;8.258;2022-12-18T10:12:55;70.55;;;23.65;;
61054;SDS011;46939;48.940;8.258;2022-12-18T10:15:33;66.57;;;23.00;;
61054;SDS011;46939;48.940;8.258;2022-12-18T10:18:12;64.13;;;23.15;;
61054;SDS011;46939;48.940;8.258;2022-12-18T10:20:51;59.03;;;21.90;;
61054;SDS011;46939;48.940;8.258;2022-12-18T10:23:25;66.93;;;22.45;;
61054;SDS011;46939;48.940;8.258;2022-12-18T10:25:59;64.82;;;24.25;;
61054;SDS011;46939;48.940;8.258;2022-12-18T10:28:30;68.60;;;22.87;;
61054;SDS011;46939;48.940;8.258;2022-12-18T10:31:03;67.20;;;24.58;;
61054;SDS011;46939;48.940;8.258;2022-12-18T10:33:33;68.07;;;23.33;;
61054;SDS011;46939;48.940;8.258;2022-12-18T10:36:02;68.82;;;24.02;;
61054;SDS011;46939;48.940;8.258;2022-12-18T10:38:31;69.03;;;23.42;;
61054;SDS011;46939;48.940;8.258;2022-12-18T10:41:00;68.68;;;23.23;;
61054;SDS011;46939;48.940;8.258;2022-12-18T10:43:30;64.03;;;23.02;;
61054;SDS011;46939;48.940;8.258;2022-12-18T10:46:04;67.05;;;26.30;;
61054;SDS011;46939;48.940;8.258;2022-12-18T10:48:50;68.88;;;23.92;;
61054;SDS011;46939;48.940;8.258;2022-12-18T10:51:22;60.72;;;23.27;;
61054;SDS011;46939;48.940;8.258;2022-12-18T10:53:54;70.35;;;25.08;;
61054;SDS011;46939;48.940;8.258;2022-12-18T10:56:25;61.35;;;22.40;;
61054;SDS011;46939;48.940;8.258;2022-12-18T10:58:56;69.22;;;23.33;;
61054;SDS011;46939;48.940;8.258;2022-12-18T11:01:29;68.55;;;23.38;;
61054;SDS011;46939;48.940;8.258;2022-12-18T11:04:16;68.95;;;22.52;;
61054;SDS011;46939;48.940;8.258;2022-12-18T11:06:54;67.88;;;23.35;;
61054;SDS011;46939;48.940;8.258;2022-12-18T11:09:24;65.70;;;23.20;;
61054;SDS011;46939;48.940;8.258;2022-12-18T11:11:54;63.95;;;22.75;;
61054;SDS011;46939;48.940;8.258;2022-12-18T11:14:25;66.72;;;24.10;;
61054;SDS011;46939;48.940;8.258;2022-12-18T11:16:58;72.18;;;23.73;;
61054;SDS011;46939;48.940;8.258;2022-12-18T11:19:32;72.95;;;25.30;;
61054;SDS011;46939;48.940;8.258;2022-12-18T11:22:03;67.20;;;22.63;;
61054;SDS011;46939;48.940;8.258;2022-12-18T11:24:52;62.85;;;23.90;;
61054;SDS011;46939;48.940;8.258;2022-12-18T11:27:22;69.63;;;22.98;;
61054;SDS011;46939;48.940;8.258;2022-12-18T11:29:51;61.35;;;23.15;;
61054;SDS011;46939;48.940;8.258;2022-12-18T11:32:31;59.30;;;20.45;;
61054;SDS011;46939;48.940;8.258;2022-12-18T11:35:04;67.85;;;23.13;;
61054;SDS011;46939;48.940;8.258;2022-12-18T11:37:43;57.65;;;21.40;;
61054;SDS011;46939;48.940;8.258;2022-12-18T11:42:48;66.28;;;21.27;;
61054;SDS011;46939;48.940;8.258;2022-12-18T11:45:26;60.75;;;21.05;;
61054;SDS011;46939;48.940;8.258;2022-12-18T11:48:01;59.97;;;22.40;;
61054;SDS011;46939;48.940;8.258;2022-12-18T11:50:33;66.10;;;22.63;;
61054;SDS011;46939;48.940;8.258;2022-12-18T11:53:12;60.55;;;21.77;;
61054;SDS011;46939;48.940;8.258;2022-12-18T11:55:41;63.40;;;22.98;;
61054;SDS011;46939;48.940;8.258;2022-12-18T11:58:19;62.72;;;22.35;;
61054;SDS011;46939;48.940;8.258;2022-12-18T12:01:01;54.58;;;20.60;;
61054;SDS011;46939;48.940;8.258;2022-12-18T12:04:00;61.85;;;22.83;;
61054;SDS011;46939;48.940;8.258;2022-12-18T12:06:45;64.47;;;22.70;;
61054;SDS011;46939;48.940;8.258;2022-12-18T12:09:23;54.42;;;21.48;;
61054;SDS011;46939;48.940;8.258;2022-12-18T12:12:02;53.50;;;20.85;;
61054;SDS011;46939;48.940;8.258;2022-12-18T12:14:46;53.88;;;19.90;;
61054;SDS011;46939;48.940;8.258;2022-12-18T12:17:28;52.65;;;19.58;;
61054;SDS011;46939;48.940;8.258;2022-12-18T12:20:07;53.35;;;20.52;;
61054;SDS011;46939;48.940;8.258;2022-12-18T12:23:05;53.60;;;21.08;;
61054;SDS011;46939;48.940;8.258;2022-12-18T12:26:25;60.38;;;20.98;;
61054;SDS011;46939;48.940;8.258;2022-12-18T12:30:45;53.30;;;20.73;;
61054;SDS011;46939;48.940;8.258;2022-12-18T12:43:51;59.67;;;22.23;;
61054;SDS011;46939;48.940;8.258;2022-12-18T12:46:23;64.35;;;23.52;;
61054;SDS011;46939;48.940;8.258;2022-12-18T12:48:53;58.72;;;22.48;;
61054;SDS011;46939;48.940;8.258;2022-12-18T12:51:25;68.53;;;23.73;;
61054;SDS011;46939;48.940;8.258;2022-12-18T12:53:56;61.17;;;24.92;;
61054;SDS011;46939;48.940;8.258;2022-12-18T12:56:27;65.72;;;23.80;;
61054;SDS011;46939;48.940;8.258;2022-12-18T12:59:09;56.25;;;22.60;;
61054;SDS011;46939;48.940;8.258;2022-12-18T13:01:47;59.83;;;22.58;;
61054;SDS011;46939;48.940;8.258;2022-12-18T13:04:23;69.97;;;26.08;;
61054;SDS011;46939;48.940;8.258;2022-12-18T13:07:04;65.13;;;24.00;;
61054;SDS011;46939;48.940;8.258;2022-12-18T13:10:10;65.53;;;25.15;;
61054;SDS011;46939;48.940;8.258;2022-12-18T13:12:53;71.20;;;24.77;;
61054;SDS011;46939;48.940;8.258;2022-12-18T13:15:24;61.58;;;23.73;;
61054;SDS011;46939;48.940;8.258;2022-12-18T13:18:03;70.05;;;25.65;;
61054;SDS011;46939;48.940;8.258;2022-12-18T13:20:34;63.40;;;25.20;;
61054;SDS011;46939;48.940;8.258;2022-12-18T13:23:19;69.38;;;26.42;;
61054;SDS011;46939;48.940;8.258;2022-12-18T13:25:54;69.43;;;25.40;;
61054;SDS011;46939;48.940;8.258;2022-12-18T13:28:23;68.82;;;26.20;;
61054;SDS011;46939;48.940;8.258;2022-12-18T13:31:15;69.20;;;26.73;;
61054;SDS011;46939;48.940;8.258;2022-12-18T13:34:18;65.90;;;25.92;;
61054;SDS011;46939;48.940;8.258;2022-12-18T13:36:48;62.53;;;24.90;;
61054;SDS011;46939;48.940;8.258;2022-12-18T13:39:21;70.38;;;26.80;;
61054;SDS011;46939;48.940;8.258;2022-12-18T13:48:10;70.85;;;25.27;;
61054;SDS011;46939;48.940;8.258;2022-12-18T13:50:47;67.78;;;24.40;;
61054;SDS011;46939;48.940;8.258;2022-12-18T13:53:18;65.70;;;24.70;;
61054;SDS011;46939;48.940;8.258;2022-12-18T13:55:49;72.82;;;26.48;;
61054;SDS011;46939;48.940;8.258;2022-12-18T13:58:18;66.95;;;26.60;;
61054;SDS011;46939;48.940;8.258;2022-12-18T14:00:46;68.53;;;24.77;;
61054;SDS011;46939;48.940;8.258;2022-12-18T14:03:19;68.93;;;25.98;;
61054;SDS011;46939;48.940;8.258;2022-12-18T14:05:55;67.78;;;26.23;;
61054;SDS011;46939;48.940;8.258;2022-12-18T14:08:29;70.82;;;26.08;;
61054;SDS011;46939;48.940;8.258;2022-12-18T14:11:01;75.43;;;26.45;;
61054;SDS011;46939;48.940;8.258;2022-12-18T14:13:32;73.47;;;25.55;;
61054;SDS011;46939;48.940;8.258;2022-12-18T14:16:04;78.90;;;26.75;;
61054;SDS011;46939;48.940;8.258;2022-12-18T14:18:41;67.25;;;26.42;;
61054;SDS011;46939;48.940;8.258;2022-12-18T14:21:17;72.18;;;26.13;;
61054;SDS011;46939;48.940;8.258;2022-12-18T14:23:48;70.45;;;25.63;;
61054;SDS011;46939;48.940;8.258;2022-12-18T14:26:30;70.53;;;26.20;;
61054;SDS011;46939;48.940;8.258;2022-12-18T14:29:00;70.80;;;25.92;;
61054;SDS011;46939;48.940;8.258;2022-12-18T14:31:45;70.82;;;26.13;;
61054;SDS011;46939;48.940;8.258;2022-12-18T14:34:17;73.75;;;26.65;;
61054;SDS011;46939;48.940;8.258;2022-12-18T14:36:51;66.13;;;24.83;;
61054;SDS011;46939;48.940;8.258;2022-12-18T14:39:21;69.45;;;26.25;;
61054;SDS011;46939;48.940;8.258;2022-12-18T14:41:50;67.60;;;24.25;;
61054;SDS011;46939;48.940;8.258;2022-12-18T14:44:19;65.82;;;24.15;;
61054;SDS011;46939;48.940;8.258;2022-12-18T14:46:48;62.55;;;24.13;;
61054;SDS011;46939;48.940;8.258;2022-12-18T14:49:21;63.55;;;24.23;;
61054;SDS011;46939;48.940;8.258;2022-12-18T14:51:52;61.65;;;23.98;;
61054;SDS011;46939;48.940;8.258;2022-12-18T14:54:23;64.68;;;23.58;;
61054;SDS011;46939;48.940;8.258;2022-12-18T14:56:54;66.47;;;24.55;;
61054;SDS011;46939;48.940;8.258;2022-12-18T14:59:27;60.55;;;23.77;;
61054;SDS011;46939;48.940;8.258;2022-12-18T15:01:58;64.25;;;23.70;;
61054;SDS011;46939;48.940;8.258;2022-12-18T15:04:33;63.20;;;23.88;;
61054;SDS011;46939;48.940;8.258;2022-12-18T15:07:05;58.70;;;23.20;;
61054;SDS011;46939;48.940;8.258;2022-12-18T15:09:42;61.85;;;23.98;;
61054;SDS011;46939;48.940;8.258;2022-12-18T15:12:20;62.03;;;23.13;;
61054;SDS011;46939;48.940;8.258;2022-12-18T15:14:53;59.15;;;23.25;;